<?xml version='1.0' encoding='UTF-8'?>
<gpx xmlns="http://www.topografix.com/GPX/1/1" creator="www.balnam.be" version="1.1" xmlns:xsi="http://www.w3.org/2001/XMLSchema-instance" xsi:schemaLocation="http://www.topografix.com/GPX/1/1 http://www.topografix.com/GPX/1/1/gpx.xsd">
<trk>
<name>llggv1</name>
<cmt>v</cmt>
<desc>Grivegnée Chemin n°1 </desc>
<link href="https://chemins.be/grivegnee/chemin/1"/><trkseg>
<trkpt lat="50.621518" lon="5.606634"><time>2026-05-04T16:20:46Z</time></trkpt>
<trkpt lat="50.621608" lon="5.606287"><time>2026-05-04T16:30:46Z</time></trkpt>
<trkpt lat="50.621368" lon="5.605823"><time>2026-05-04T16:40:46Z</time></trkpt>
<trkpt lat="50.620960" lon="5.606102"><time>2026-05-04T16:50:46Z</time></trkpt>
<trkpt lat="50.620541" lon="5.605961"><time>2026-05-04T17:00:46Z</time></trkpt>
<trkpt lat="50.620225" lon="5.605840"><time>2026-05-04T17:10:46Z</time></trkpt>
</trkseg>
</trk>
<trk>
<name>llggv12</name>
<cmt>r</cmt>
<desc>Grivegnée Chemin n°12 </desc>
<link href="https://chemins.be/grivegnee/chemin/12"/><trkseg>
<trkpt lat="50.624369" lon="5.594961"><time>2026-05-04T16:20:46Z</time></trkpt>
<trkpt lat="50.623834" lon="5.594239"><time>2026-05-04T16:30:46Z</time></trkpt>
</trkseg></trk>
<trk>
<name>llggv12</name>
<cmt>s</cmt>
<desc>Grivegnée Chemin n°12 </desc>
<link href="https://chemins.be/grivegnee/chemin/12"/><trkseg>
<trkpt lat="50.623834" lon="5.594239"><time>2026-05-04T16:30:46Z</time></trkpt>
<trkpt lat="50.622060" lon="5.594818"><time>2026-05-04T16:40:46Z</time></trkpt>
<trkpt lat="50.620785" lon="5.596613"><time>2026-05-04T16:50:46Z</time></trkpt>
<trkpt lat="50.620825" lon="5.596949"><time>2026-05-04T17:00:46Z</time></trkpt>
<trkpt lat="50.619509" lon="5.598730"><time>2026-05-04T17:10:46Z</time></trkpt>
<trkpt lat="50.619564" lon="5.598924"><time>2026-05-04T17:20:46Z</time></trkpt>
<trkpt lat="50.618969" lon="5.599775"><time>2026-05-04T17:30:46Z</time></trkpt>
<trkpt lat="50.617730" lon="5.600240"><time>2026-05-04T17:40:46Z</time></trkpt>
<trkpt lat="50.617390" lon="5.601084"><time>2026-05-04T17:50:46Z</time></trkpt>
<trkpt lat="50.618239" lon="5.602571"><time>2026-05-04T18:00:46Z</time></trkpt>
</trkseg>
</trk>
<trk>
<name>llggv19</name>
<cmt>r</cmt>
<desc>Grivegnée Chemin n°19 </desc>
<link href="https://chemins.be/grivegnee/chemin/19"/><trkseg>
<trkpt lat="50.638343" lon="5.596515"><time>2026-05-04T16:20:46Z</time></trkpt>
<trkpt lat="50.638201" lon="5.596862"><time>2026-05-04T16:30:46Z</time></trkpt>
<trkpt lat="50.638457" lon="5.597895"><time>2026-05-04T16:40:46Z</time></trkpt>
<trkpt lat="50.638429" lon="5.598261"><time>2026-05-04T16:50:46Z</time></trkpt>
</trkseg></trk>
<trk>
<name>llggv19</name>
<cmt>d</cmt>
<desc>Grivegnée Chemin n°19 </desc>
<link href="https://chemins.be/grivegnee/chemin/19"/><trkseg>
<trkpt lat="50.638429" lon="5.598261"><time>2026-05-04T16:50:46Z</time></trkpt>
<trkpt lat="50.638198" lon="5.598403"><time>2026-05-04T17:00:46Z</time></trkpt>
</trkseg></trk>
<trk>
<name>llggv19</name>
<cmt>s</cmt>
<desc>Grivegnée Chemin n°19 </desc>
<link href="https://chemins.be/grivegnee/chemin/19"/><trkseg>
<trkpt lat="50.638198" lon="5.598403"><time>2026-05-04T17:00:46Z</time></trkpt>
<trkpt lat="50.637908" lon="5.598550"><time>2026-05-04T17:10:46Z</time></trkpt>
<trkpt lat="50.637550" lon="5.598986"><time>2026-05-04T17:20:46Z</time></trkpt>
<trkpt lat="50.634905" lon="5.600939"><time>2026-05-04T17:30:46Z</time></trkpt>
</trkseg>
</trk>
<trk>
<name>llggv20</name>
<cmt>v</cmt>
<desc>Grivegnée Chemin n°20 </desc>
<link href="https://chemins.be/grivegnee/chemin/20"/><trkseg>
<trkpt lat="50.638414" lon="5.598199"><time>2026-05-04T16:20:46Z</time></trkpt>
<trkpt lat="50.638271" lon="5.598721"><time>2026-05-04T16:30:46Z</time></trkpt>
</trkseg>
</trk>
<trk>
<name>llggv22</name>
<cmt>r</cmt>
<desc>Grivegnée Chemin n°22 Rue Pétry / Avenue de la Grande Rôtisse</desc>
<link href="https://chemins.be/grivegnee/chemin/22"/><trkseg>
<trkpt lat="50.619557" lon="5.603061"><time>2026-05-04T16:20:46Z</time></trkpt>
<trkpt lat="50.619988" lon="5.603713"><time>2026-05-04T16:30:46Z</time></trkpt>
</trkseg></trk>
<trk>
<name>llggv22</name>
<cmt>v</cmt>
<desc>Grivegnée Chemin n°22 Rue Pétry / Avenue de la Grande Rôtisse</desc>
<link href="https://chemins.be/grivegnee/chemin/22"/><trkseg>
<trkpt lat="50.619988" lon="5.603713"><time>2026-05-04T16:30:46Z</time></trkpt>
<trkpt lat="50.620150" lon="5.604008"><time>2026-05-04T16:40:46Z</time></trkpt>
</trkseg></trk>
<trk>
<name>llggv22</name>
<cmt>s</cmt>
<desc>Grivegnée Chemin n°22 Rue Pétry / Avenue de la Grande Rôtisse</desc>
<link href="https://chemins.be/grivegnee/chemin/22"/><trkseg>
<trkpt lat="50.620150" lon="5.604008"><time>2026-05-04T16:40:46Z</time></trkpt>
<trkpt lat="50.620280" lon="5.604067"><time>2026-05-04T16:50:46Z</time></trkpt>
<trkpt lat="50.620704" lon="5.604289"><time>2026-05-04T17:00:46Z</time></trkpt>
</trkseg></trk>
<trk>
<name>llggv22</name>
<cmt>v</cmt>
<desc>Grivegnée Chemin n°22 Rue Pétry / Avenue de la Grande Rôtisse</desc>
<link href="https://chemins.be/grivegnee/chemin/22"/><trkseg>
<trkpt lat="50.620704" lon="5.604289"><time>2026-05-04T17:00:46Z</time></trkpt>
<trkpt lat="50.621374" lon="5.604289"><time>2026-05-04T17:10:46Z</time></trkpt>
<trkpt lat="50.621492" lon="5.604310"><time>2026-05-04T17:20:46Z</time></trkpt>
<trkpt lat="50.621909" lon="5.604010"><time>2026-05-04T17:30:46Z</time></trkpt>
<trkpt lat="50.622313" lon="5.603870"><time>2026-05-04T17:40:46Z</time></trkpt>
</trkseg></trk>
<trk>
<name>llggv22</name>
<cmt>q</cmt>
<desc>Grivegnée Chemin n°22 Rue Pétry / Avenue de la Grande Rôtisse</desc>
<link href="https://chemins.be/grivegnee/chemin/22"/><trkseg>
<trkpt lat="50.622313" lon="5.603870"><time>2026-05-04T17:40:46Z</time></trkpt>
<trkpt lat="50.622883" lon="5.604021"><time>2026-05-04T17:50:46Z</time></trkpt>
</trkseg></trk>
<trk>
<name>llggv22</name>
<cmt>v</cmt>
<desc>Grivegnée Chemin n°22 Rue Pétry / Avenue de la Grande Rôtisse</desc>
<link href="https://chemins.be/grivegnee/chemin/22"/><trkseg>
<trkpt lat="50.622883" lon="5.604021"><time>2026-05-04T17:50:46Z</time></trkpt>
<trkpt lat="50.623010" lon="5.604074"><time>2026-05-04T18:00:46Z</time></trkpt>
<trkpt lat="50.623527" lon="5.603928"><time>2026-05-04T18:10:46Z</time></trkpt>
<trkpt lat="50.623720" lon="5.603988"><time>2026-05-04T18:20:46Z</time></trkpt>
<trkpt lat="50.623922" lon="5.603985"><time>2026-05-04T18:30:46Z</time></trkpt>
<trkpt lat="50.624223" lon="5.603802"><time>2026-05-04T18:40:46Z</time></trkpt>
</trkseg></trk>
<trk>
<name>llggv22</name>
<cmt>r</cmt>
<desc>Grivegnée Chemin n°22 Rue Pétry / Avenue de la Grande Rôtisse</desc>
<link href="https://chemins.be/grivegnee/chemin/22"/><trkseg>
<trkpt lat="50.624223" lon="5.603802"><time>2026-05-04T18:40:46Z</time></trkpt>
<trkpt lat="50.624366" lon="5.604149"><time>2026-05-04T18:50:46Z</time></trkpt>
</trkseg></trk>
<trk>
<name>llggv22</name>
<cmt>s</cmt>
<desc>Grivegnée Chemin n°22 Rue Pétry / Avenue de la Grande Rôtisse</desc>
<link href="https://chemins.be/grivegnee/chemin/22"/><trkseg>
<trkpt lat="50.624366" lon="5.604149"><time>2026-05-04T18:50:46Z</time></trkpt>
<trkpt lat="50.625303" lon="5.605372"><time>2026-05-04T19:00:46Z</time></trkpt>
</trkseg>
</trk>
<trk>
<name>llggv24</name>
<cmt>v</cmt>
<desc>Grivegnée Chemin n°24 Rue Jobette</desc>
<link href="https://chemins.be/grivegnee/chemin/24"/><trkseg>
<trkpt lat="50.616280" lon="5.608993"><time>2026-05-04T16:20:46Z</time></trkpt>
<trkpt lat="50.616137" lon="5.608952"><time>2026-05-04T16:30:46Z</time></trkpt>
<trkpt lat="50.615851" lon="5.608743"><time>2026-05-04T16:40:46Z</time></trkpt>
<trkpt lat="50.615575" lon="5.609215"><time>2026-05-04T16:50:46Z</time></trkpt>
<trkpt lat="50.615506" lon="5.609328"><time>2026-05-04T17:00:46Z</time></trkpt>
</trkseg>
</trk>
<trk>
<name>llggv26</name>
<cmt>q</cmt>
<desc>Grivegnée Chemin n°26 </desc>
<link href="https://chemins.be/grivegnee/chemin/26"/><trkseg>
<trkpt lat="50.616676" lon="5.607480"><time>2026-05-04T16:20:46Z</time></trkpt>
<trkpt lat="50.616222" lon="5.606997"><time>2026-05-04T16:30:46Z</time></trkpt>
</trkseg>
</trk>
<trk>
<name>llggv27</name>
<cmt>s</cmt>
<desc>Grivegnée Chemin n°27 </desc>
<link href="https://chemins.be/grivegnee/chemin/27"/><trkseg>
<trkpt lat="50.618434" lon="5.599917"><time>2026-05-04T16:20:46Z</time></trkpt>
<trkpt lat="50.618323" lon="5.599459"><time>2026-05-04T16:30:46Z</time></trkpt>
<trkpt lat="50.618189" lon="5.599506"><time>2026-05-04T16:40:46Z</time></trkpt>
<trkpt lat="50.617447" lon="5.598730"><time>2026-05-04T16:50:46Z</time></trkpt>
<trkpt lat="50.617504" lon="5.598526"><time>2026-05-04T17:00:46Z</time></trkpt>
<trkpt lat="50.617265" lon="5.598250"><time>2026-05-04T17:10:46Z</time></trkpt>
</trkseg>
</trk>
<trk>
<name>llggv28</name>
<cmt>v</cmt>
<desc>Grivegnée Chemin n°28 Rue de l'Aigle Noir / Rue Haute-Wez</desc>
<link href="https://chemins.be/grivegnee/chemin/28"/><trkseg>
<trkpt lat="50.625686" lon="5.591822"><time>2026-05-04T16:20:46Z</time></trkpt>
<trkpt lat="50.625350" lon="5.592139"><time>2026-05-04T16:30:46Z</time></trkpt>
<trkpt lat="50.625234" lon="5.592121"><time>2026-05-04T16:40:46Z</time></trkpt>
<trkpt lat="50.625162" lon="5.592063"><time>2026-05-04T16:50:46Z</time></trkpt>
<trkpt lat="50.624888" lon="5.591660"><time>2026-05-04T17:00:46Z</time></trkpt>
</trkseg>
</trk>
<trk>
<name>llggv3</name>
<cmt>v</cmt>
<desc>Grivegnée Chemin n°3 </desc>
<link href="https://chemins.be/grivegnee/chemin/3"/><trkseg>
<trkpt lat="50.641270" lon="5.609377"><time>2026-05-04T16:20:46Z</time></trkpt>
<trkpt lat="50.639833" lon="5.608578"><time>2026-05-04T16:30:46Z</time></trkpt>
<trkpt lat="50.638924" lon="5.607042"><time>2026-05-04T16:40:46Z</time></trkpt>
</trkseg></trk>
<trk>
<name>llggv3</name>
<cmt>q</cmt>
<desc>Grivegnée Chemin n°3 </desc>
<link href="https://chemins.be/grivegnee/chemin/3"/><trkseg>
<trkpt lat="50.638924" lon="5.607042"><time>2026-05-04T16:40:46Z</time></trkpt>
<trkpt lat="50.638690" lon="5.605969"><time>2026-05-04T16:50:46Z</time></trkpt>
</trkseg>
</trk>
<trk>
<name>llggv33</name>
<cmt>v</cmt>
<desc>Grivegnée Sentier n°33 </desc>
<link href="https://chemins.be/grivegnee/sentier/33"/><trkseg>
<trkpt lat="50.636428" lon="5.606514"><time>2026-05-04T16:20:46Z</time></trkpt>
<trkpt lat="50.635870" lon="5.608569"><time>2026-05-04T16:30:46Z</time></trkpt>
</trkseg></trk>
<trk>
<name>llggv33</name>
<cmt>s</cmt>
<desc>Grivegnée Sentier n°33 </desc>
<link href="https://chemins.be/grivegnee/sentier/33"/><trkseg>
<trkpt lat="50.635870" lon="5.608569"><time>2026-05-04T16:30:46Z</time></trkpt>
<trkpt lat="50.634471" lon="5.610436"><time>2026-05-04T16:40:46Z</time></trkpt>
<trkpt lat="50.633974" lon="5.611825"><time>2026-05-04T16:50:46Z</time></trkpt>
<trkpt lat="50.632351" lon="5.614218"><time>2026-05-04T17:00:46Z</time></trkpt>
</trkseg>
</trk>
<trk>
<name>llggv34</name>
<cmt>d</cmt>
<desc>Grivegnée Chemin n°34 </desc>
<link href="https://chemins.be/grivegnee/chemin/34"/><trkseg>
<trkpt lat="50.633611" lon="5.604543"><time>2026-05-04T16:20:46Z</time></trkpt>
<trkpt lat="50.633450" lon="5.605409"><time>2026-05-04T16:30:46Z</time></trkpt>
</trkseg></trk>
<trk>
<name>llggv34</name>
<cmt>q</cmt>
<desc>Grivegnée Chemin n°34 </desc>
<link href="https://chemins.be/grivegnee/chemin/34"/><trkseg>
<trkpt lat="50.633450" lon="5.605409"><time>2026-05-04T16:30:46Z</time></trkpt>
<trkpt lat="50.633243" lon="5.606517"><time>2026-05-04T16:40:46Z</time></trkpt>
</trkseg>
</trk>
<trk>
<name>llggv35</name>
<cmt>v</cmt>
<desc>Grivegnée Sentier n°35 </desc>
<link href="https://chemins.be/grivegnee/sentier/35"/><trkseg>
<trkpt lat="50.641690" lon="5.612241"><time>2026-05-04T16:20:46Z</time></trkpt>
<trkpt lat="50.640613" lon="5.612533"><time>2026-05-04T16:30:46Z</time></trkpt>
<trkpt lat="50.640155" lon="5.612155"><time>2026-05-04T16:40:46Z</time></trkpt>
<trkpt lat="50.639012" lon="5.613151"><time>2026-05-04T16:50:46Z</time></trkpt>
<trkpt lat="50.638272" lon="5.612653"><time>2026-05-04T17:00:46Z</time></trkpt>
<trkpt lat="50.637445" lon="5.611846"><time>2026-05-04T17:10:46Z</time></trkpt>
</trkseg>
</trk>
<trk>
<name>llggv37</name>
<cmt>s</cmt>
<desc>Grivegnée Sentier n°37 </desc>
<link href="https://chemins.be/grivegnee/sentier/37"/><trkseg>
<trkpt lat="50.647552" lon="5.611568"><time>2026-05-04T16:20:46Z</time></trkpt>
<trkpt lat="50.648119" lon="5.611980"><time>2026-05-04T16:30:46Z</time></trkpt>
<trkpt lat="50.648846" lon="5.614123"><time>2026-05-04T16:40:46Z</time></trkpt>
</trkseg>
</trk>
<trk>
<name>llggv4</name>
<cmt>s</cmt>
<desc>Grivegnée Chemin n°4 </desc>
<link href="https://chemins.be/grivegnee/chemin/4"/><trkseg>
<trkpt lat="50.644657" lon="5.601915"><time>2026-05-04T16:20:46Z</time></trkpt>
<trkpt lat="50.647544" lon="5.611591"><time>2026-05-04T16:30:46Z</time></trkpt>
<trkpt lat="50.648202" lon="5.614938"><time>2026-05-04T16:40:46Z</time></trkpt>
</trkseg>
</trk>
<trk>
<name>llggv5</name>
<cmt>v</cmt>
<desc>Grivegnée Chemin n°5 Rue de la Haminde</desc>
<link href="https://chemins.be/grivegnee/chemin/5"/><trkseg>
<trkpt lat="50.623166" lon="5.601313"><time>2026-05-04T16:20:46Z</time></trkpt>
<trkpt lat="50.623447" lon="5.601632"><time>2026-05-04T16:30:46Z</time></trkpt>
<trkpt lat="50.623586" lon="5.601810"><time>2026-05-04T16:40:46Z</time></trkpt>
<trkpt lat="50.623931" lon="5.601946"><time>2026-05-04T16:50:46Z</time></trkpt>
</trkseg></trk>
<trk>
<name>llggv5</name>
<cmt>r</cmt>
<desc>Grivegnée Chemin n°5 Rue de la Haminde</desc>
<link href="https://chemins.be/grivegnee/chemin/5"/><trkseg>
<trkpt lat="50.623931" lon="5.601946"><time>2026-05-04T16:50:46Z</time></trkpt>
<trkpt lat="50.624253" lon="5.602393"><time>2026-05-04T17:00:46Z</time></trkpt>
</trkseg>
</trk>
<trk>
<name>llggv52</name>
<cmt>v</cmt>
<desc>Grivegnée Chemin n°52 </desc>
<link href="https://chemins.be/grivegnee/chemin/52"/><trkseg>
<trkpt lat="50.624229" lon="5.602409"><time>2026-05-04T16:20:46Z</time></trkpt>
<trkpt lat="50.624154" lon="5.602505"><time>2026-05-04T16:30:46Z</time></trkpt>
<trkpt lat="50.623829" lon="5.602850"><time>2026-05-04T16:40:46Z</time></trkpt>
</trkseg></trk>
<trk>
<name>llggv52</name>
<cmt>s</cmt>
<desc>Grivegnée Chemin n°52 </desc>
<link href="https://chemins.be/grivegnee/chemin/52"/><trkseg>
<trkpt lat="50.623829" lon="5.602850"><time>2026-05-04T16:40:46Z</time></trkpt>
<trkpt lat="50.623687" lon="5.603073"><time>2026-05-04T16:50:46Z</time></trkpt>
<trkpt lat="50.623931" lon="5.603697"><time>2026-05-04T17:00:46Z</time></trkpt>
</trkseg>
</trk>
<trk>
<name>llggv53</name>
<cmt>v</cmt>
<desc>Grivegnée Sentier n°53 </desc>
<link href="https://chemins.be/grivegnee/sentier/53"/><trkseg>
<trkpt lat="50.619280" lon="5.606436"><time>2026-05-04T16:20:46Z</time></trkpt>
<trkpt lat="50.619412" lon="5.606248"><time>2026-05-04T16:30:46Z</time></trkpt>
</trkseg>
</trk>
<trk>
<name>llggv54</name>
<cmt>b</cmt>
<desc>Grivegnée Sentier n°54 </desc>
<link href="https://chemins.be/grivegnee/sentier/54"/><trkseg>
<trkpt lat="50.619325" lon="5.604916"><time>2026-05-04T16:20:46Z</time></trkpt>
<trkpt lat="50.619325" lon="5.605009"><time>2026-05-04T16:30:46Z</time></trkpt>
<trkpt lat="50.619192" lon="5.605209"><time>2026-05-04T16:40:46Z</time></trkpt>
<trkpt lat="50.619160" lon="5.605176"><time>2026-05-04T16:50:46Z</time></trkpt>
<trkpt lat="50.618975" lon="5.605494"><time>2026-05-04T17:00:46Z</time></trkpt>
</trkseg>
</trk>
<trk>
<name>llggv60</name>
<cmt>v</cmt>
<desc>Grivegnée Sentier n°60 </desc>
<link href="https://chemins.be/grivegnee/sentier/60"/><trkseg>
<trkpt lat="50.637516" lon="5.604656"><time>2026-05-04T16:20:46Z</time></trkpt>
<trkpt lat="50.636458" lon="5.606287"><time>2026-05-04T16:30:46Z</time></trkpt>
<trkpt lat="50.636399" lon="5.606494"><time>2026-05-04T16:40:46Z</time></trkpt>
</trkseg></trk>
<trk>
<name>llggv60</name>
<cmt>s</cmt>
<desc>Grivegnée Sentier n°60 </desc>
<link href="https://chemins.be/grivegnee/sentier/60"/><trkseg>
<trkpt lat="50.636399" lon="5.606494"><time>2026-05-04T16:40:46Z</time></trkpt>
<trkpt lat="50.635957" lon="5.606953"><time>2026-05-04T16:50:46Z</time></trkpt>
<trkpt lat="50.634950" lon="5.608957"><time>2026-05-04T17:00:46Z</time></trkpt>
<trkpt lat="50.634607" lon="5.609245"><time>2026-05-04T17:10:46Z</time></trkpt>
<trkpt lat="50.634248" lon="5.609609"><time>2026-05-04T17:20:46Z</time></trkpt>
<trkpt lat="50.633915" lon="5.610313"><time>2026-05-04T17:30:46Z</time></trkpt>
<trkpt lat="50.633896" lon="5.610704"><time>2026-05-04T17:40:46Z</time></trkpt>
<trkpt lat="50.634016" lon="5.611772"><time>2026-05-04T17:50:46Z</time></trkpt>
</trkseg>
</trk>
<trk>
<name>llggv61</name>
<cmt>v</cmt>
<desc>Grivegnée Sentier n°61 </desc>
<link href="https://chemins.be/grivegnee/sentier/61"/><trkseg>
<trkpt lat="50.642079" lon="5.606189"><time>2026-05-04T16:20:46Z</time></trkpt>
<trkpt lat="50.642074" lon="5.606641"><time>2026-05-04T16:30:46Z</time></trkpt>
<trkpt lat="50.641851" lon="5.606508"><time>2026-05-04T16:40:46Z</time></trkpt>
<trkpt lat="50.641835" lon="5.606281"><time>2026-05-04T16:50:46Z</time></trkpt>
<trkpt lat="50.641766" lon="5.606011"><time>2026-05-04T17:00:46Z</time></trkpt>
<trkpt lat="50.641688" lon="5.605783"><time>2026-05-04T17:10:46Z</time></trkpt>
<trkpt lat="50.641645" lon="5.605569"><time>2026-05-04T17:20:46Z</time></trkpt>
<trkpt lat="50.641569" lon="5.605044"><time>2026-05-04T17:30:46Z</time></trkpt>
<trkpt lat="50.641501" lon="5.604760"><time>2026-05-04T17:40:46Z</time></trkpt>
<trkpt lat="50.641448" lon="5.604617"><time>2026-05-04T17:50:46Z</time></trkpt>
<trkpt lat="50.641211" lon="5.604130"><time>2026-05-04T18:00:46Z</time></trkpt>
<trkpt lat="50.640982" lon="5.603657"><time>2026-05-04T18:10:46Z</time></trkpt>
<trkpt lat="50.640861" lon="5.603173"><time>2026-05-04T18:20:46Z</time></trkpt>
<trkpt lat="50.640694" lon="5.602801"><time>2026-05-04T18:30:46Z</time></trkpt>
<trkpt lat="50.640597" lon="5.602672"><time>2026-05-04T18:40:46Z</time></trkpt>
<trkpt lat="50.640553" lon="5.602501"><time>2026-05-04T18:50:46Z</time></trkpt>
<trkpt lat="50.640528" lon="5.602359"><time>2026-05-04T19:00:46Z</time></trkpt>
<trkpt lat="50.640468" lon="5.602060"><time>2026-05-04T19:10:46Z</time></trkpt>
<trkpt lat="50.640353" lon="5.601859"><time>2026-05-04T19:20:46Z</time></trkpt>
<trkpt lat="50.640319" lon="5.601675"><time>2026-05-04T19:30:46Z</time></trkpt>
<trkpt lat="50.640134" lon="5.601345"><time>2026-05-04T19:40:46Z</time></trkpt>
<trkpt lat="50.640038" lon="5.601102"><time>2026-05-04T19:50:46Z</time></trkpt>
<trkpt lat="50.640002" lon="5.601101"><time>2026-05-04T20:00:46Z</time></trkpt>
<trkpt lat="50.639949" lon="5.600972"><time>2026-05-04T20:10:46Z</time></trkpt>
<trkpt lat="50.639871" lon="5.600730"><time>2026-05-04T20:20:46Z</time></trkpt>
<trkpt lat="50.639791" lon="5.600615"><time>2026-05-04T20:30:46Z</time></trkpt>
<trkpt lat="50.639604" lon="5.600468"><time>2026-05-04T20:40:46Z</time></trkpt>
<trkpt lat="50.639527" lon="5.600085"><time>2026-05-04T20:50:46Z</time></trkpt>
<trkpt lat="50.639422" lon="5.599827"><time>2026-05-04T21:00:46Z</time></trkpt>
<trkpt lat="50.639351" lon="5.599684"><time>2026-05-04T21:10:46Z</time></trkpt>
<trkpt lat="50.639326" lon="5.599570"><time>2026-05-04T21:20:46Z</time></trkpt>
<trkpt lat="50.639265" lon="5.599357"><time>2026-05-04T21:30:46Z</time></trkpt>
<trkpt lat="50.639033" lon="5.599167"><time>2026-05-04T21:40:46Z</time></trkpt>
<trkpt lat="50.638900" lon="5.598979"><time>2026-05-04T21:50:46Z</time></trkpt>
</trkseg>
</trk>
<trk>
<name>llggv62</name>
<cmt>q</cmt>
<desc>Grivegnée Sentier n°62 </desc>
<link href="https://chemins.be/grivegnee/sentier/62"/><trkseg>
<trkpt lat="50.625377" lon="5.611757"><time>2026-05-04T16:20:46Z</time></trkpt>
<trkpt lat="50.626393" lon="5.611571"><time>2026-05-04T16:30:46Z</time></trkpt>
<trkpt lat="50.626654" lon="5.611084"><time>2026-05-04T16:40:46Z</time></trkpt>
<trkpt lat="50.627515" lon="5.609478"><time>2026-05-04T16:50:46Z</time></trkpt>
<trkpt lat="50.628417" lon="5.607795"><time>2026-05-04T17:00:46Z</time></trkpt>
<trkpt lat="50.629942" lon="5.606364"><time>2026-05-04T17:10:46Z</time></trkpt>
</trkseg>
</trk>
<trk>
<name>llggv63</name>
<cmt>r</cmt>
<desc>Grivegnée Sentier n°63 Rue Prince-de-Liège</desc>
<link href="https://chemins.be/grivegnee/sentier/63"/><trkseg>
<trkpt lat="50.628490" lon="5.624649"><time>2026-05-04T16:20:46Z</time></trkpt>
<trkpt lat="50.628848" lon="5.624900"><time>2026-05-04T16:30:46Z</time></trkpt>
<trkpt lat="50.629982" lon="5.627545"><time>2026-05-04T16:40:46Z</time></trkpt>
</trkseg></trk>
<trk>
<name>llggv63</name>
<cmt>v</cmt>
<desc>Grivegnée Sentier n°63 Rue Prince-de-Liège</desc>
<link href="https://chemins.be/grivegnee/sentier/63"/><trkseg>
<trkpt lat="50.629982" lon="5.627545"><time>2026-05-04T16:40:46Z</time></trkpt>
<trkpt lat="50.630065" lon="5.627649"><time>2026-05-04T16:50:46Z</time></trkpt>
</trkseg></trk>
<trk>
<name>llggv63</name>
<cmt>r</cmt>
<desc>Grivegnée Sentier n°63 Rue Prince-de-Liège</desc>
<link href="https://chemins.be/grivegnee/sentier/63"/><trkseg>
<trkpt lat="50.630065" lon="5.627649"><time>2026-05-04T16:50:46Z</time></trkpt>
<trkpt lat="50.630872" lon="5.628612"><time>2026-05-04T17:00:46Z</time></trkpt>
<trkpt lat="50.631421" lon="5.629342"><time>2026-05-04T17:10:46Z</time></trkpt>
</trkseg>
</trk>
<trk>
<name>llggv64</name>
<cmt>v</cmt>
<desc>Grivegnée Sentier n°64 sentier des Trois Chemins</desc>
<link href="https://chemins.be/grivegnee/sentier/64"/><trkseg>
<trkpt lat="50.626958" lon="5.633596"><time>2026-05-04T16:20:46Z</time></trkpt>
<trkpt lat="50.626430" lon="5.633356"><time>2026-05-04T16:30:46Z</time></trkpt>
<trkpt lat="50.626307" lon="5.633098"><time>2026-05-04T16:40:46Z</time></trkpt>
<trkpt lat="50.625520" lon="5.633059"><time>2026-05-04T16:50:46Z</time></trkpt>
<trkpt lat="50.624498" lon="5.633239"><time>2026-05-04T17:00:46Z</time></trkpt>
<trkpt lat="50.624058" lon="5.633350"><time>2026-05-04T17:10:46Z</time></trkpt>
</trkseg>
</trk>
<trk>
<name>llggv66</name>
<cmt>q</cmt>
<desc>Grivegnée Sentier n°66 </desc>
<link href="https://chemins.be/grivegnee/sentier/66"/><trkseg>
<trkpt lat="50.622613" lon="5.608675"><time>2026-05-04T16:20:46Z</time></trkpt>
<trkpt lat="50.623686" lon="5.611007"><time>2026-05-04T16:30:46Z</time></trkpt>
<trkpt lat="50.624165" lon="5.611543"><time>2026-05-04T16:40:46Z</time></trkpt>
<trkpt lat="50.624106" lon="5.613760"><time>2026-05-04T16:50:46Z</time></trkpt>
<trkpt lat="50.624384" lon="5.613810"><time>2026-05-04T17:00:46Z</time></trkpt>
<trkpt lat="50.624936" lon="5.616835"><time>2026-05-04T17:10:46Z</time></trkpt>
</trkseg>
</trk>
<trk>
<name>llggv67</name>
<cmt>v</cmt>
<desc>Grivegnée Sentier n°67 Ruelle Renard</desc>
<link href="https://chemins.be/grivegnee/sentier/67"/><trkseg>
<trkpt lat="50.621903" lon="5.618833"><time>2026-05-04T16:20:46Z</time></trkpt>
<trkpt lat="50.623180" lon="5.617100"><time>2026-05-04T16:30:46Z</time></trkpt>
</trkseg>
</trk>
<trk>
<name>llggv70</name>
<cmt>v</cmt>
<desc>Grivegnée Sentier n°70 </desc>
<link href="https://chemins.be/grivegnee/sentier/70"/><trkseg>
<trkpt lat="50.627294" lon="5.631786"><time>2026-05-04T16:20:46Z</time></trkpt>
<trkpt lat="50.628324" lon="5.632294"><time>2026-05-04T16:30:46Z</time></trkpt>
</trkseg></trk>
<trk>
<name>llggv70</name>
<cmt>s</cmt>
<desc>Grivegnée Sentier n°70 </desc>
<link href="https://chemins.be/grivegnee/sentier/70"/><trkseg>
<trkpt lat="50.628324" lon="5.632294"><time>2026-05-04T16:30:46Z</time></trkpt>
<trkpt lat="50.629849" lon="5.633317"><time>2026-05-04T16:40:46Z</time></trkpt>
</trkseg>
</trk>
<trk>
<name>llggv70bis</name>
<cmt>s</cmt>
<desc>Grivegnée Sentier n°70bis </desc>
<link href="https://chemins.be/grivegnee/sentier/70bis"/><trkseg>
<trkpt lat="50.628301" lon="5.632322"><time>2026-05-04T16:20:46Z</time></trkpt>
<trkpt lat="50.629268" lon="5.631879"><time>2026-05-04T16:30:46Z</time></trkpt>
<trkpt lat="50.630284" lon="5.630506"><time>2026-05-04T16:40:46Z</time></trkpt>
<trkpt lat="50.630212" lon="5.628338"><time>2026-05-04T16:50:46Z</time></trkpt>
<trkpt lat="50.630007" lon="5.627695"><time>2026-05-04T17:00:46Z</time></trkpt>
</trkseg>
</trk>
<trk>
<name>llggv72</name>
<cmt>q</cmt>
<desc>Grivegnée Sentier n°72 </desc>
<link href="https://chemins.be/grivegnee/sentier/72"/><trkseg>
<trkpt lat="50.631883" lon="5.613924"><time>2026-05-04T16:20:46Z</time></trkpt>
<trkpt lat="50.631520" lon="5.614926"><time>2026-05-04T16:30:46Z</time></trkpt>
<trkpt lat="50.631176" lon="5.619060"><time>2026-05-04T16:40:46Z</time></trkpt>
<trkpt lat="50.631003" lon="5.619589"><time>2026-05-04T16:50:46Z</time></trkpt>
<trkpt lat="50.631021" lon="5.622050"><time>2026-05-04T17:00:46Z</time></trkpt>
</trkseg></trk>
<trk>
<name>llggv72</name>
<cmt>r</cmt>
<desc>Grivegnée Sentier n°72 </desc>
<link href="https://chemins.be/grivegnee/sentier/72"/><trkseg>
<trkpt lat="50.631021" lon="5.622050"><time>2026-05-04T17:00:46Z</time></trkpt>
<trkpt lat="50.631349" lon="5.622022"><time>2026-05-04T17:10:46Z</time></trkpt>
</trkseg></trk>
<trk>
<name>llggv72</name>
<cmt>q</cmt>
<desc>Grivegnée Sentier n°72 </desc>
<link href="https://chemins.be/grivegnee/sentier/72"/><trkseg>
<trkpt lat="50.631349" lon="5.622022"><time>2026-05-04T17:10:46Z</time></trkpt>
<trkpt lat="50.631723" lon="5.623225"><time>2026-05-04T17:20:46Z</time></trkpt>
<trkpt lat="50.631919" lon="5.624577"><time>2026-05-04T17:30:46Z</time></trkpt>
<trkpt lat="50.631796" lon="5.625418"><time>2026-05-04T17:40:46Z</time></trkpt>
</trkseg>
</trk>
<trk>
<name>llggv73</name>
<cmt>s</cmt>
<desc>Grivegnée Sentier n°73 </desc>
<link href="https://chemins.be/grivegnee/sentier/73"/><trkseg>
<trkpt lat="50.635026" lon="5.615097"><time>2026-05-04T16:20:46Z</time></trkpt>
<trkpt lat="50.634172" lon="5.613171"><time>2026-05-04T16:30:46Z</time></trkpt>
<trkpt lat="50.634281" lon="5.611578"><time>2026-05-04T16:40:46Z</time></trkpt>
<trkpt lat="50.634162" lon="5.611272"><time>2026-05-04T16:50:46Z</time></trkpt>
</trkseg>
</trk>
<trk>
<name>llggvi1</name>
<cmt>v</cmt>
<desc>Grivegnée Sentier n°i1 Clos des Briquetiers</desc>
<link href="https://chemins.be/grivegnee/sentier/i1"/><trkseg>
<trkpt lat="50.626153" lon="5.614054"><time>2026-05-04T16:20:46Z</time></trkpt>
<trkpt lat="50.626251" lon="5.614057"><time>2026-05-04T16:30:46Z</time></trkpt>
<trkpt lat="50.626361" lon="5.614738"><time>2026-05-04T16:40:46Z</time></trkpt>
<trkpt lat="50.626544" lon="5.615309"><time>2026-05-04T16:50:46Z</time></trkpt>
</trkseg>
</trk>
<trk>
<name>llggvi10</name>
<cmt>v</cmt>
<desc>Grivegnée Chemin n°i10 </desc>
<link href="https://chemins.be/grivegnee/chemin/i10"/><trkseg>
<trkpt lat="50.632203" lon="5.623339"><time>2026-05-04T16:20:46Z</time></trkpt>
<trkpt lat="50.632721" lon="5.623589"><time>2026-05-04T16:30:46Z</time></trkpt>
<trkpt lat="50.633778" lon="5.624301"><time>2026-05-04T16:40:46Z</time></trkpt>
</trkseg>
</trk>
<trk>
<name>llggvi11</name>
<cmt>v</cmt>
<desc>Grivegnée Sentier n°i11 </desc>
<link href="https://chemins.be/grivegnee/sentier/i11"/><trkseg>
<trkpt lat="50.633825" lon="5.624374"><time>2026-05-04T16:20:46Z</time></trkpt>
<trkpt lat="50.633783" lon="5.624298"><time>2026-05-04T16:30:46Z</time></trkpt>
<trkpt lat="50.633716" lon="5.624012"><time>2026-05-04T16:40:46Z</time></trkpt>
</trkseg>
</trk>
<trk>
<name>llggvi2</name>
<cmt>v</cmt>
<desc>Grivegnée Sentier n°i2 Impasse Nélis</desc>
<link href="https://chemins.be/grivegnee/sentier/i2"/><trkseg>
<trkpt lat="50.629738" lon="5.588494"><time>2026-05-04T16:20:46Z</time></trkpt>
<trkpt lat="50.629703" lon="5.587863"><time>2026-05-04T16:30:46Z</time></trkpt>
</trkseg>
</trk>
<trk>
<name>llggvi3</name>
<cmt>v</cmt>
<desc>Grivegnée Sentier n°i3 Impasse Demeuse</desc>
<link href="https://chemins.be/grivegnee/sentier/i3"/><trkseg>
<trkpt lat="50.629542" lon="5.588558"><time>2026-05-04T16:20:46Z</time></trkpt>
<trkpt lat="50.629469" lon="5.587869"><time>2026-05-04T16:30:46Z</time></trkpt>
</trkseg>
</trk>
<trk>
<name>llggvi4</name>
<cmt>s</cmt>
<desc>Grivegnée Chemin n°i4 Tunnel de la Chartreuse</desc>
<link href="https://chemins.be/grivegnee/chemin/i4"/><trkseg>
<trkpt lat="50.637265" lon="5.602143"><time>2026-05-04T16:20:46Z</time></trkpt>
<trkpt lat="50.636962" lon="5.602527"><time>2026-05-04T16:30:46Z</time></trkpt>
<trkpt lat="50.636739" lon="5.602795"><time>2026-05-04T16:40:46Z</time></trkpt>
<trkpt lat="50.635638" lon="5.604382"><time>2026-05-04T16:50:46Z</time></trkpt>
<trkpt lat="50.634798" lon="5.606021"><time>2026-05-04T17:00:46Z</time></trkpt>
<trkpt lat="50.633275" lon="5.609254"><time>2026-05-04T17:10:46Z</time></trkpt>
<trkpt lat="50.631565" lon="5.613065"><time>2026-05-04T17:20:46Z</time></trkpt>
<trkpt lat="50.631217" lon="5.613838"><time>2026-05-04T17:30:46Z</time></trkpt>
</trkseg>
</trk>
<trk>
<name>llggvi5</name>
<cmt>v</cmt>
<desc>Grivegnée Sentier n°i5 </desc>
<link href="https://chemins.be/grivegnee/sentier/i5"/><trkseg>
<trkpt lat="50.617690" lon="5.607521"><time>2026-05-04T16:20:46Z</time></trkpt>
<trkpt lat="50.618317" lon="5.609143"><time>2026-05-04T16:30:46Z</time></trkpt>
</trkseg>
</trk>
<trk>
<name>llggvi6</name>
<cmt>v</cmt>
<desc>Grivegnée Sentier n°i6 Sentier du Pré des Monts</desc>
<link href="https://chemins.be/grivegnee/sentier/i6"/><trkseg>
<trkpt lat="50.629049" lon="5.633571"><time>2026-05-04T16:20:46Z</time></trkpt>
<trkpt lat="50.628307" lon="5.632330"><time>2026-05-04T16:30:46Z</time></trkpt>
</trkseg>
</trk>
<trk>
<name>llggvi7</name>
<cmt>v</cmt>
<desc>Grivegnée Chemin n°i7 </desc>
<link href="https://chemins.be/grivegnee/chemin/i7"/><trkseg>
<trkpt lat="50.635876" lon="5.608703"><time>2026-05-04T16:20:46Z</time></trkpt>
<trkpt lat="50.637537" lon="5.611721"><time>2026-05-04T16:30:46Z</time></trkpt>
</trkseg>
</trk>
<trk>
<name>llggvi8</name>
<cmt>s</cmt>
<desc>Grivegnée Chemin n°i8 </desc>
<link href="https://chemins.be/grivegnee/chemin/i8"/><trkseg>
<trkpt lat="50.632834" lon="5.595487"><time>2026-05-04T16:20:46Z</time></trkpt>
<trkpt lat="50.631137" lon="5.605779"><time>2026-05-04T16:30:46Z</time></trkpt>
</trkseg>
</trk>
<trk>
<name>llggvi9</name>
<cmt>v</cmt>
<desc>Grivegnée Sentier n°i9 </desc>
<link href="https://chemins.be/grivegnee/sentier/i9"/><trkseg>
<trkpt lat="50.629063" lon="5.632171"><time>2026-05-04T16:20:46Z</time></trkpt>
<trkpt lat="50.629201" lon="5.631878"><time>2026-05-04T16:30:46Z</time></trkpt>
<trkpt lat="50.629399" lon="5.631623"><time>2026-05-04T16:40:46Z</time></trkpt>
<trkpt lat="50.629422" lon="5.631655"><time>2026-05-04T16:50:46Z</time></trkpt>
</trkseg>
</trk>
<trk>
<name>llggvL38</name>
<cmt>v</cmt>
<desc>Grivegnée Chemin n°L38 Ravel 5 (Ligne 38)</desc>
<link href="https://chemins.be/grivegnee/chemin/L38"/><trkseg>
<trkpt lat="50.622671" lon="5.621750"><time>2026-05-04T16:20:46Z</time></trkpt>
<trkpt lat="50.622796" lon="5.621853"><time>2026-05-04T16:30:46Z</time></trkpt>
<trkpt lat="50.623318" lon="5.622700"><time>2026-05-04T16:40:46Z</time></trkpt>
<trkpt lat="50.624098" lon="5.623753"><time>2026-05-04T16:50:46Z</time></trkpt>
<trkpt lat="50.624596" lon="5.624233"><time>2026-05-04T17:00:46Z</time></trkpt>
<trkpt lat="50.625185" lon="5.624616"><time>2026-05-04T17:10:46Z</time></trkpt>
<trkpt lat="50.626154" lon="5.624854"><time>2026-05-04T17:20:46Z</time></trkpt>
<trkpt lat="50.626531" lon="5.624849"><time>2026-05-04T17:30:46Z</time></trkpt>
<trkpt lat="50.630561" lon="5.623818"><time>2026-05-04T17:40:46Z</time></trkpt>
<trkpt lat="50.631378" lon="5.623360"><time>2026-05-04T17:50:46Z</time></trkpt>
<trkpt lat="50.632585" lon="5.623315"><time>2026-05-04T18:00:46Z</time></trkpt>
<trkpt lat="50.633364" lon="5.623720"><time>2026-05-04T18:10:46Z</time></trkpt>
<trkpt lat="50.633919" lon="5.624197"><time>2026-05-04T18:20:46Z</time></trkpt>
</trkseg>
</trk>
<trk>
<name>llggvL38b</name>
<cmt>v</cmt>
<desc>Grivegnée Chemin n°L38 partie b </desc>
<link href="https://chemins.be/grivegnee/chemin/L38b"/><trkseg>
<trkpt lat="50.630153" lon="5.633371"><time>2026-05-04T16:20:46Z</time></trkpt>
<trkpt lat="50.628402" lon="5.633932"><time>2026-05-04T16:30:46Z</time></trkpt>
<trkpt lat="50.626850" lon="5.635332"><time>2026-05-04T16:40:46Z</time></trkpt>
<trkpt lat="50.626209" lon="5.636389"><time>2026-05-04T16:50:46Z</time></trkpt>
</trkseg>
</trk>
</gpx>